createdAt,value
2023-09-27T00:00:36.777Z,13.54
2023-09-27T00:03:05.491Z,13.51
2023-09-27T00:05:34.637Z,13.49
2023-09-27T00:08:02.416Z,13.46
2023-09-27T00:10:30.367Z,13.44
2023-09-27T00:12:58.010Z,13.42
2023-09-27T00:15:26.036Z,13.37
2023-09-27T00:17:53.794Z,13.30
2023-09-27T00:20:22.929Z,13.26
2023-09-27T00:22:52.065Z,13.23
2023-09-27T00:25:20.512Z,13.20
2023-09-27T00:27:48.321Z,13.18
2023-09-27T00:30:17.090Z,13.15
2023-09-27T00:32:46.788Z,13.13
2023-09-27T00:35:20.586Z,13.09
2023-09-27T00:37:49.059Z,13.07
2023-09-27T00:40:20.019Z,13.05
2023-09-27T00:42:48.999Z,13.00
2023-09-27T00:45:18.118Z,13.00
2023-09-27T00:47:48.204Z,12.99
2023-09-27T00:50:16.855Z,12.99
2023-09-27T00:52:47.740Z,12.99
2023-09-27T00:55:16.399Z,12.97
2023-09-27T00:57:46.627Z,12.92
2023-09-27T01:00:16.138Z,12.88
2023-09-27T01:02:44.043Z,12.83
2023-09-27T01:05:12.253Z,12.81
2023-09-27T01:07:41.429Z,12.78
2023-09-27T01:10:11.056Z,12.73
2023-09-27T01:12:39.435Z,12.76
2023-09-27T01:15:10.511Z,12.75
2023-09-27T01:17:38.692Z,12.75
2023-09-27T01:20:08.154Z,12.76
2023-09-27T01:22:35.969Z,12.76
2023-09-27T01:25:09.752Z,12.77
2023-09-27T01:27:37.662Z,12.76
2023-09-27T01:30:06.926Z,12.75
2023-09-27T01:32:34.791Z,12.73
2023-09-27T01:35:03.740Z,12.72
2023-09-27T01:37:33.998Z,12.70
2023-09-27T01:40:01.891Z,12.63
2023-09-27T01:42:30.935Z,12.58
2023-09-27T01:44:58.728Z,12.52
2023-09-27T01:47:26.478Z,12.44
2023-09-27T01:49:54.180Z,12.35
2023-09-27T01:52:21.888Z,12.28
2023-09-27T01:54:49.611Z,12.25
2023-09-27T01:57:17.297Z,12.22
2023-09-27T01:59:46.490Z,12.24
2023-09-27T02:02:14.653Z,12.28
2023-09-27T02:04:42.568Z,12.29
2023-09-27T02:07:10.310Z,12.30
2023-09-27T02:09:38.066Z,12.30
2023-09-27T02:12:06.036Z,12.31
2023-09-27T02:14:33.838Z,12.33
2023-09-27T02:17:02.894Z,12.35
2023-09-27T02:19:31.058Z,12.38
2023-09-27T02:21:58.756Z,12.38
2023-09-27T02:24:26.744Z,12.36
2023-09-27T02:26:54.610Z,12.36
2023-09-27T02:29:23.396Z,12.35
2023-09-27T02:31:51.104Z,12.36
2023-09-27T02:34:20.186Z,12.33
2023-09-27T02:36:49.946Z,12.34
2023-09-27T02:39:17.836Z,12.33
2023-09-27T02:41:45.813Z,12.33
2023-09-27T02:44:13.573Z,12.32
2023-09-27T02:46:42.079Z,12.33
2023-09-27T02:49:10.473Z,12.34
2023-09-27T02:51:41.343Z,12.35
2023-09-27T02:54:09.049Z,12.37
2023-09-27T02:56:37.245Z,12.32
2023-09-27T02:59:05.025Z,12.27
2023-09-27T03:01:32.727Z,12.24
2023-09-27T03:04:00.612Z,12.20
2023-09-27T03:06:28.383Z,12.18
2023-09-27T03:08:57.597Z,12.16
2023-09-27T03:11:25.778Z,12.15
2023-09-27T03:13:53.513Z,12.16
2023-09-27T03:16:21.258Z,12.15
2023-09-27T03:18:48.975Z,12.14
2023-09-27T03:21:16.683Z,12.15
2023-09-27T03:23:44.422Z,12.14
2023-09-27T03:26:13.727Z,12.14
2023-09-27T03:28:41.753Z,12.14
2023-09-27T03:31:09.415Z,12.13
2023-09-27T03:33:38.664Z,12.13
2023-09-27T03:36:08.417Z,12.10
2023-09-27T03:38:36.242Z,12.09
2023-09-27T03:41:03.999Z,12.08
2023-09-27T03:43:33.137Z,12.06
2023-09-27T03:46:04.653Z,12.04
2023-09-27T03:48:33.159Z,12.01
2023-09-27T03:51:01.434Z,12.00
2023-09-27T03:53:30.998Z,11.97
2023-09-27T03:55:58.707Z,11.94
2023-09-27T03:58:26.641Z,11.92
2023-09-27T04:00:55.772Z,11.88
2023-09-27T04:03:23.539Z,11.86
2023-09-27T04:05:52.508Z,11.81
2023-09-27T04:08:20.200Z,11.81
2023-09-27T04:10:47.866Z,11.77
2023-09-27T04:13:15.542Z,11.75
2023-09-27T04:15:43.241Z,11.74
2023-09-27T04:18:12.292Z,11.71
2023-09-27T04:20:40.242Z,11.69
2023-09-27T04:23:07.915Z,11.67
2023-09-27T04:25:35.622Z,11.66
2023-09-27T04:28:06.060Z,11.64
2023-09-27T04:30:33.990Z,11.63
2023-09-27T04:33:01.710Z,11.61
2023-09-27T04:35:30.753Z,11.58
2023-09-27T04:37:58.534Z,11.56
2023-09-27T04:40:26.229Z,11.54
2023-09-27T04:42:54.268Z,11.53
2023-09-27T04:45:21.914Z,11.51
2023-09-27T04:47:50.893Z,11.50
2023-09-27T04:50:18.997Z,11.50
2023-09-27T04:52:48.046Z,11.48
2023-09-27T04:55:16.805Z,11.48
2023-09-27T04:57:44.498Z,11.45
2023-09-27T05:00:15.533Z,11.42
2023-09-27T05:02:43.714Z,11.41
2023-09-27T05:05:11.871Z,11.41
2023-09-27T05:07:41.271Z,11.40
2023-09-27T05:10:12.061Z,11.38
2023-09-27T05:12:40.685Z,11.38
2023-09-27T05:15:10.439Z,11.37
2023-09-27T05:17:38.506Z,11.38
2023-09-27T05:20:12.188Z,11.37
2023-09-27T05:22:40.630Z,11.38
2023-09-27T05:25:11.057Z,11.38
2023-09-27T05:27:39.788Z,11.40
2023-09-27T05:30:10.026Z,11.41
2023-09-27T05:32:37.875Z,11.42
2023-09-27T05:35:06.508Z,11.42
2023-09-27T05:37:34.269Z,11.41
2023-09-27T05:40:05.405Z,11.41
2023-09-27T05:42:34.756Z,11.40
2023-09-27T05:45:02.437Z,11.40
2023-09-27T05:47:30.610Z,11.41
2023-09-27T05:49:58.809Z,11.41
2023-09-27T05:52:28.611Z,11.38
2023-09-27T05:54:57.604Z,11.36
2023-09-27T05:57:25.591Z,11.37
2023-09-27T05:59:55.231Z,11.34
2023-09-27T06:02:31.819Z,11.36
2023-09-27T06:05:00.353Z,11.38
2023-09-27T06:07:28.321Z,11.41
2023-09-27T06:09:55.972Z,11.44
2023-09-27T06:12:23.624Z,11.48
2023-09-27T06:14:51.388Z,11.53
2023-09-27T06:17:20.668Z,11.60
2023-09-27T06:19:49.630Z,11.67
2023-09-27T06:22:18.011Z,11.74
2023-09-27T06:24:47.462Z,11.80
2023-09-27T06:27:17.603Z,11.86
2023-09-27T06:29:45.445Z,11.90
2023-09-27T06:32:13.197Z,11.94
2023-09-27T06:34:42.227Z,12.00
2023-09-27T06:37:09.904Z,12.04
2023-09-27T06:39:38.339Z,12.08
2023-09-27T06:42:07.704Z,12.15
2023-09-27T06:44:36.171Z,12.21
2023-09-27T06:47:05.626Z,12.27
2023-09-27T06:49:33.405Z,12.33
2023-09-27T06:52:02.493Z,12.39
2023-09-27T06:54:30.282Z,12.44
2023-09-27T06:56:58.188Z,12.50
2023-09-27T06:59:26.744Z,12.56
2023-09-27T07:01:54.499Z,12.61
2023-09-27T07:04:22.160Z,12.67
2023-09-27T07:06:50.114Z,12.73
2023-09-27T07:09:21.419Z,12.79
2023-09-27T07:11:49.716Z,12.86
2023-09-27T07:14:20.434Z,12.95
2023-09-27T07:17:01.048Z,13.04
2023-09-27T07:19:32.404Z,13.15
2023-09-27T07:22:02.552Z,13.23
2023-09-27T07:24:32.419Z,13.32
2023-09-27T07:27:00.182Z,13.40
2023-09-27T07:29:29.349Z,13.50
2023-09-27T07:31:57.226Z,13.58
2023-09-27T07:34:25.000Z,13.68
2023-09-27T07:36:53.495Z,13.77
2023-09-27T07:39:21.607Z,13.84
2023-09-27T07:41:51.162Z,13.92
2023-09-27T07:44:19.386Z,14.04
2023-09-27T07:46:47.238Z,14.13
2023-09-27T07:49:15.260Z,14.27
2023-09-27T07:51:43.108Z,14.39
2023-09-27T07:54:13.485Z,14.52
2023-09-27T07:56:41.704Z,14.65
2023-09-27T07:59:10.929Z,14.75
2023-09-27T08:01:38.782Z,14.87
2023-09-27T08:04:11.857Z,14.99
2023-09-27T08:06:40.264Z,15.10
2023-09-27T08:09:12.513Z,15.20
2023-09-27T08:11:45.822Z,15.33
2023-09-27T08:14:17.386Z,15.49
2023-09-27T08:16:47.193Z,15.62
2023-09-27T08:19:15.306Z,15.80
2023-09-27T08:21:42.974Z,15.96
2023-09-27T08:24:10.663Z,16.15
2023-09-27T08:26:38.437Z,16.31
2023-09-27T08:29:07.180Z,16.47
2023-09-27T08:31:39.005Z,16.64
2023-09-27T08:34:06.912Z,16.81
2023-09-27T08:36:34.581Z,16.98
2023-09-27T08:39:02.580Z,17.16
2023-09-27T08:41:31.198Z,17.33
2023-09-27T08:43:59.448Z,17.52
2023-09-27T08:46:27.507Z,17.69
2023-09-27T08:48:59.356Z,17.86
2023-09-27T08:51:28.356Z,18.04
2023-09-27T08:53:56.123Z,18.22
2023-09-27T08:56:25.701Z,18.40
2023-09-27T08:58:54.200Z,18.58
2023-09-27T09:01:22.899Z,18.73
2023-09-27T09:03:53.193Z,18.91
2023-09-27T09:06:23.464Z,19.07
2023-09-27T09:08:51.420Z,19.22
2023-09-27T09:11:19.275Z,19.37
2023-09-27T09:13:58.583Z,19.55
2023-09-27T09:16:26.410Z,19.71
2023-09-27T09:18:56.646Z,19.87
2023-09-27T09:21:26.922Z,20.02
2023-09-27T09:23:55.094Z,20.15
2023-09-27T09:26:30.654Z,20.28
2023-09-27T09:29:01.607Z,20.45
2023-09-27T09:31:32.163Z,20.59
2023-09-27T09:34:07.281Z,20.73
2023-09-27T09:36:38.019Z,20.88
2023-09-27T09:39:07.466Z,21.02
2023-09-27T09:41:48.490Z,21.19
2023-09-27T09:44:20.858Z,21.32
2023-09-27T09:46:49.717Z,21.45
2023-09-27T09:49:18.068Z,21.60
2023-09-27T09:51:49.390Z,21.74
2023-09-27T09:54:26.268Z,21.87
2023-09-27T09:57:00.961Z,22.00
2023-09-27T09:59:39.323Z,22.14
2023-09-27T10:02:22.505Z,22.32
2023-09-27T10:04:57.401Z,22.49
2023-09-27T10:07:30.110Z,22.66
2023-09-27T10:09:59.240Z,22.82
2023-09-27T10:12:27.816Z,22.99
2023-09-27T10:14:56.847Z,23.14
2023-09-27T10:17:26.455Z,23.30
2023-09-27T10:20:13.874Z,23.44
2023-09-27T10:22:44.731Z,23.55
2023-09-27T10:25:35.452Z,23.69
2023-09-27T10:28:10.581Z,23.82
2023-09-27T10:31:10.528Z,23.94
2023-09-27T10:33:40.455Z,24.03
2023-09-27T10:36:31.669Z,24.10
2023-09-27T10:39:06.417Z,24.16
2023-09-27T10:41:47.482Z,24.22
2023-09-27T10:44:28.248Z,24.33
2023-09-27T10:46:56.523Z,24.45
2023-09-27T10:49:25.905Z,24.61
2023-09-27T10:52:04.720Z,24.72
2023-09-27T10:54:36.420Z,24.82
2023-09-27T10:57:04.855Z,24.89
2023-09-27T10:59:32.573Z,24.93
2023-09-27T11:02:01.450Z,24.93
2023-09-27T11:04:29.182Z,24.91
2023-09-27T11:06:57.317Z,24.82
2023-09-27T11:09:25.475Z,24.72
2023-09-27T11:11:58.156Z,24.65
2023-09-27T11:14:31.016Z,24.73
2023-09-27T11:17:14.828Z,24.89
2023-09-27T11:19:42.893Z,25.12
2023-09-27T11:22:10.992Z,25.32
2023-09-27T11:24:41.010Z,25.43
2023-09-27T11:27:10.334Z,25.55
2023-09-27T11:29:38.496Z,25.62
2023-09-27T11:32:06.595Z,25.68
2023-09-27T11:34:34.292Z,25.67
2023-09-27T11:37:04.224Z,25.59
2023-09-27T11:39:49.589Z,25.55
2023-09-27T11:42:22.275Z,25.59
2023-09-27T11:45:02.432Z,25.65
2023-09-27T11:47:30.145Z,25.74
2023-09-27T11:49:57.894Z,25.86
2023-09-27T11:52:25.971Z,25.99
2023-09-27T11:54:54.475Z,26.01
2023-09-27T11:57:23.468Z,26.06
2023-09-27T11:59:52.101Z,26.15
2023-09-27T12:02:28.219Z,26.27
2023-09-27T12:04:57.481Z,26.45
2023-09-27T12:07:25.658Z,26.57
2023-09-27T12:09:53.806Z,26.69
2023-09-27T12:12:22.901Z,26.90
2023-09-27T12:14:51.504Z,27.08
2023-09-27T12:17:20.492Z,27.33
2023-09-27T12:19:48.189Z,27.51
2023-09-27T12:22:16.392Z,27.69
2023-09-27T12:24:44.139Z,27.88
2023-09-27T12:27:11.808Z,28.01
2023-09-27T12:29:40.851Z,28.10
2023-09-27T12:32:08.542Z,28.24
2023-09-27T12:34:36.276Z,28.41
2023-09-27T12:37:04.240Z,28.50
2023-09-27T12:39:31.911Z,28.58
2023-09-27T12:42:01.301Z,28.77
2023-09-27T12:44:29.004Z,28.92
2023-09-27T12:46:58.021Z,28.97
2023-09-27T12:49:26.416Z,29.10
2023-09-27T12:51:54.213Z,29.22
2023-09-27T12:54:23.898Z,29.43
2023-09-27T12:56:51.714Z,29.60
2023-09-27T12:59:19.621Z,29.80
2023-09-27T13:01:47.461Z,29.82
2023-09-27T13:04:16.556Z,29.78
2023-09-27T13:06:45.070Z,29.68
2023-09-27T13:09:13.864Z,29.59
2023-09-27T13:11:41.784Z,29.52
2023-09-27T13:14:10.040Z,29.49
2023-09-27T13:16:37.809Z,29.50
2023-09-27T13:19:05.679Z,29.43
2023-09-27T13:21:34.712Z,29.34
2023-09-27T13:24:02.408Z,29.24
2023-09-27T13:26:30.072Z,29.19
2023-09-27T13:28:57.839Z,29.13
2023-09-27T13:31:27.588Z,29.09
2023-09-27T13:34:09.407Z,29.13
2023-09-27T13:36:41.848Z,29.30
2023-09-27T13:39:15.495Z,29.46
2023-09-27T13:41:44.110Z,29.64
2023-09-27T13:44:13.055Z,29.68
2023-09-27T13:46:41.542Z,29.57
2023-09-27T13:49:09.887Z,29.44
2023-09-27T13:51:38.053Z,29.29
2023-09-27T13:54:08.782Z,29.16
2023-09-27T13:56:38.108Z,28.97
2023-09-27T13:59:08.167Z,28.83
2023-09-27T14:01:36.339Z,28.78
2023-09-27T14:04:04.388Z,28.75
2023-09-27T14:06:32.303Z,28.69
2023-09-27T14:09:00.179Z,28.62
2023-09-27T14:11:29.273Z,28.49
2023-09-27T14:13:57.033Z,28.38
2023-09-27T14:16:24.895Z,28.28
2023-09-27T14:18:54.201Z,28.16
2023-09-27T14:21:22.203Z,28.11
2023-09-27T14:23:50.123Z,28.12
2023-09-27T14:26:20.419Z,28.13
2023-09-27T14:28:49.693Z,28.16
2023-09-27T14:31:18.664Z,28.15
2023-09-27T14:33:46.578Z,28.13
2023-09-27T14:36:14.306Z,28.07
2023-09-27T14:38:42.077Z,27.99
2023-09-27T14:41:10.532Z,27.92
2023-09-27T14:43:39.370Z,28.01
2023-09-27T14:46:12.937Z,28.06
2023-09-27T14:48:41.917Z,28.09
2023-09-27T14:51:13.561Z,28.13
2023-09-27T14:53:42.046Z,28.15
2023-09-27T14:56:10.922Z,28.16
2023-09-27T14:58:39.028Z,28.17
2023-09-27T15:01:07.216Z,28.19
2023-09-27T15:03:36.465Z,28.16
2023-09-27T15:06:04.859Z,28.14
2023-09-27T15:08:32.894Z,28.07
2023-09-27T15:11:01.126Z,27.98
2023-09-27T15:13:30.128Z,27.89
2023-09-27T15:15:57.929Z,27.78
2023-09-27T15:18:26.585Z,27.69
2023-09-27T15:20:55.685Z,27.56
2023-09-27T15:23:23.378Z,27.47
2023-09-27T15:25:51.878Z,27.35
2023-09-27T15:28:19.737Z,27.27
2023-09-27T15:30:47.979Z,27.17
2023-09-27T15:33:15.729Z,27.06
2023-09-27T15:35:52.908Z,26.94
2023-09-27T15:38:22.193Z,26.81
2023-09-27T15:40:49.957Z,26.71
2023-09-27T15:43:18.565Z,26.60
2023-09-27T15:45:58.876Z,26.46
2023-09-27T15:48:31.258Z,26.34
2023-09-27T15:51:00.709Z,26.20
2023-09-27T15:56:11.533Z,25.91
2023-09-27T15:58:40.027Z,25.78
2023-09-27T16:01:09.201Z,25.66
2023-09-27T16:03:37.143Z,25.53
2023-09-27T16:06:05.779Z,25.43
2023-09-27T16:08:33.877Z,25.30
2023-09-27T16:11:01.864Z,25.18
2023-09-27T16:13:31.379Z,25.06
2023-09-27T16:15:59.725Z,24.94
2023-09-27T16:18:27.769Z,24.84
2023-09-27T16:20:55.604Z,24.71
2023-09-27T16:23:23.355Z,24.57
2023-09-27T16:25:51.258Z,24.49
2023-09-27T16:28:20.602Z,24.36
2023-09-27T16:30:50.340Z,24.23
2023-09-27T16:33:18.328Z,24.12
2023-09-27T16:35:46.434Z,24.00
2023-09-27T16:38:14.461Z,23.88
2023-09-27T16:40:42.264Z,23.77
2023-09-27T16:43:10.121Z,23.65
2023-09-27T16:45:38.968Z,23.53
2023-09-27T16:48:08.812Z,23.40
2023-09-27T16:50:39.819Z,23.26
2023-09-27T16:53:07.749Z,23.13
2023-09-27T16:55:36.416Z,23.00
2023-09-27T16:58:06.178Z,22.88
2023-09-27T17:00:34.145Z,22.78
2023-09-27T17:03:01.966Z,22.67
2023-09-27T17:05:31.110Z,22.56
2023-09-27T17:07:58.912Z,22.46
2023-09-27T17:10:26.745Z,22.36
2023-09-27T17:12:54.500Z,22.26
2023-09-27T17:15:23.978Z,22.14
2023-09-27T17:17:52.348Z,22.03
2023-09-27T17:20:21.407Z,21.94
2023-09-27T17:22:50.535Z,21.83
2023-09-27T17:25:18.484Z,21.73
2023-09-27T17:27:46.354Z,21.65
2023-09-27T17:30:14.639Z,21.55
2023-09-27T17:32:42.709Z,21.46
2023-09-27T17:35:11.758Z,21.38
2023-09-27T17:37:39.628Z,21.27
2023-09-27T17:40:09.603Z,21.21
2023-09-27T17:42:39.210Z,21.12
2023-09-27T17:45:09.245Z,21.05
2023-09-27T17:47:37.314Z,20.96
2023-09-27T17:50:05.862Z,20.88
2023-09-27T17:52:36.803Z,20.81
2023-09-27T17:55:05.851Z,20.72
2023-09-27T17:57:35.153Z,20.65
2023-09-27T18:00:04.577Z,20.57
2023-09-27T18:02:34.333Z,20.51
2023-09-27T18:05:05.692Z,20.42
2023-09-27T18:07:33.801Z,20.35
2023-09-27T18:10:01.600Z,20.29
2023-09-27T18:12:29.409Z,20.22
2023-09-27T18:14:58.456Z,20.16
2023-09-27T18:17:27.061Z,20.09
2023-09-27T18:19:55.368Z,20.02
2023-09-27T18:22:23.295Z,19.95
2023-09-27T18:24:51.542Z,19.88
2023-09-27T18:27:19.616Z,19.82
2023-09-27T18:29:48.443Z,19.74
2023-09-27T18:32:17.662Z,19.69
2023-09-27T18:34:45.881Z,19.63
2023-09-27T18:37:14.919Z,19.56
2023-09-27T18:39:42.811Z,19.51
2023-09-27T18:42:10.816Z,19.46
2023-09-27T18:44:38.563Z,19.42
2023-09-27T18:47:06.428Z,19.38
2023-09-27T18:49:35.748Z,19.33
2023-09-27T18:52:05.570Z,19.30
2023-09-27T18:54:33.366Z,19.23
2023-09-27T18:57:01.154Z,19.19
2023-09-27T18:59:28.978Z,19.15
2023-09-27T19:01:57.118Z,19.10
2023-09-27T19:04:25.203Z,19.05
2023-09-27T19:06:54.844Z,19.01
2023-09-27T19:09:22.635Z,18.97
2023-09-27T19:11:53.151Z,18.93
2023-09-27T19:14:21.040Z,18.88
2023-09-27T19:16:49.215Z,18.84
2023-09-27T19:19:17.166Z,18.82
2023-09-27T19:21:44.931Z,18.77
2023-09-27T19:24:14.150Z,18.73
2023-09-27T19:26:42.498Z,18.68
2023-09-27T19:29:10.333Z,18.63
2023-09-27T19:31:38.237Z,18.59
2023-09-27T19:34:06.192Z,18.54
2023-09-27T19:36:34.493Z,18.49
2023-09-27T19:39:02.988Z,18.44
2023-09-27T19:41:33.128Z,18.40
2023-09-27T19:44:00.961Z,18.35
2023-09-27T19:46:28.726Z,18.31
2023-09-27T19:48:56.627Z,18.27
2023-09-27T19:51:25.775Z,18.22
2023-09-27T19:53:54.835Z,18.19
2023-09-27T19:56:23.520Z,18.14
2023-09-27T19:58:52.685Z,18.10
2023-09-27T20:01:27.840Z,18.06
2023-09-27T20:03:56.832Z,18.03
2023-09-27T20:06:25.013Z,17.98
2023-09-27T20:08:52.826Z,17.94
2023-09-27T20:11:20.781Z,17.91
2023-09-27T20:13:48.734Z,17.87
2023-09-27T20:16:17.996Z,17.83
2023-09-27T20:18:45.889Z,17.79
2023-09-27T20:21:13.660Z,17.76
2023-09-27T20:23:41.871Z,17.72
2023-09-27T20:26:10.252Z,17.67
2023-09-27T20:28:39.099Z,17.63
2023-09-27T20:31:06.934Z,17.60
2023-09-27T20:33:36.237Z,17.56
2023-09-27T20:36:04.358Z,17.54
2023-09-27T20:38:33.598Z,17.50
2023-09-27T20:41:01.551Z,17.47
2023-09-27T20:43:29.352Z,17.44
2023-09-27T20:45:57.476Z,17.41
2023-09-27T20:48:25.278Z,17.38
2023-09-27T20:50:58.021Z,17.34
2023-09-27T20:53:26.174Z,17.32
2023-09-27T20:55:55.037Z,17.29
2023-09-27T20:58:22.889Z,17.26
2023-09-27T21:00:50.685Z,17.24
2023-09-27T21:03:18.523Z,17.19
2023-09-27T21:05:46.508Z,17.16
2023-09-27T21:08:15.595Z,17.12
2023-09-27T21:10:43.857Z,17.10
2023-09-27T21:13:11.800Z,17.07
2023-09-27T21:15:40.607Z,17.02
2023-09-27T21:18:08.500Z,17.00
2023-09-27T21:20:36.222Z,16.96
2023-09-27T21:23:04.318Z,16.93
2023-09-27T21:25:33.505Z,16.90
2023-09-27T21:28:03.674Z,16.85
2023-09-27T21:30:31.434Z,16.82
2023-09-27T21:32:59.184Z,16.79
2023-09-27T21:35:27.453Z,16.77
2023-09-27T21:37:55.393Z,16.72
2023-09-27T21:40:25.158Z,16.69
2023-09-27T21:42:54.851Z,16.64
2023-09-27T21:45:22.641Z,16.59
2023-09-27T21:47:50.448Z,16.56
2023-09-27T21:50:18.303Z,16.53
2023-09-27T21:52:46.366Z,16.50
2023-09-27T21:55:14.627Z,16.47
2023-09-27T21:57:43.082Z,16.45
2023-09-27T22:00:21.160Z,16.41
2023-09-27T22:02:50.077Z,16.38
2023-09-27T22:05:20.535Z,16.35
2023-09-27T22:07:48.739Z,16.32
2023-09-27T22:10:19.143Z,16.29
2023-09-27T22:12:47.066Z,16.25
2023-09-27T22:15:17.098Z,16.22
2023-09-27T22:17:44.953Z,16.20
2023-09-27T22:20:13.525Z,16.17
2023-09-27T22:22:41.993Z,16.14
2023-09-27T22:25:13.895Z,16.11
2023-09-27T22:27:42.408Z,16.07
2023-09-27T22:30:13.795Z,16.04
2023-09-27T22:32:46.546Z,16.01
2023-09-27T22:35:27.090Z,15.98
2023-09-27T22:37:55.794Z,15.96
2023-09-27T22:40:23.931Z,15.94
2023-09-27T22:42:52.970Z,15.91
2023-09-27T22:45:36.118Z,15.88
2023-09-27T22:48:06.554Z,15.84
2023-09-27T22:50:45.728Z,15.83
2023-09-27T22:53:14.669Z,15.81
2023-09-27T22:55:44.618Z,15.77
2023-09-27T22:58:12.668Z,15.74
2023-09-27T23:00:42.082Z,15.73
2023-09-27T23:03:14.963Z,15.69
2023-09-27T23:05:45.420Z,15.67
2023-09-27T23:08:26.391Z,15.65
2023-09-27T23:10:55.173Z,15.63
2023-09-27T23:13:36.686Z,15.61
2023-09-27T23:16:23.941Z,15.58
2023-09-27T23:19:01.206Z,15.57
2023-09-27T23:21:31.422Z,15.55
2023-09-27T23:24:00.473Z,15.53
2023-09-27T23:26:52.881Z,15.51
2023-09-27T23:29:37.512Z,15.49
2023-09-27T23:32:15.517Z,15.47
2023-09-27T23:34:45.064Z,15.45
2023-09-27T23:37:14.264Z,15.44
2023-09-27T23:39:48.331Z,15.42
2023-09-27T23:42:27.646Z,15.40
2023-09-27T23:45:03.094Z,15.38
2023-09-27T23:47:32.427Z,15.36
2023-09-27T23:50:02.223Z,15.33
2023-09-27T23:52:30.579Z,15.33
2023-09-27T23:55:03.838Z,15.31
2023-09-27T23:57:33.242Z,15.30
